RCTP/TPE METAR and TAF weather

Enter ICAO airport designator
Station Type Date Time Source
RCTP METAR 2020/06/05 08:30 UTC NOAA

RCTP 050830Z 24021KT 9999 FEW020 BKN200 31/26 Q1005 NOSIG RMK A2969


Station Type Date Time Source
RCTP Decoded METAR 2020/06/05 08:30 UTC NOAA

Chiang Kai Shek, Taiwan (RCTP) 25-05N 121-13E
Jun 05, 2020 - 04:30 AM EDT / 2020.06.05 0830 UTC
Wind: from the WSW (240 degrees) at 24 MPH (21 KT):0
Visibility: greater than 7 mile(s):0
Sky conditions: mostly cloudy
Temperature: 87 F (31 C)
Heat index: 99.7 F (37.6 C):1
Dew Point: 78 F (26 C)
Relative Humidity: 74%
Pressure (altimeter): 29.68 in. Hg (1005 hPa)
ob: RCTP 050830Z 24021KT 9999 FEW020 BKN200 31/26 Q1005 NOSIG RMK A2969
cycle: 8

Station Type Date Time Source
RCTP TAF 2020/06/05 06:03 UTC NOAA

TAF RCTP 050500Z 0506/0612 23012KT 9999 FEW020 BKN032
TEMPO 0506/0512 25018KT
TEMPO 0516/0522 18005KT
TEMPO 0600/0606 24017KT
TEMPO 0606/0612 25018KT 5000 SHRA FEW010 BKN018 BKN040

Example: see airport list